sensor_id;sensor_type;location;lat;lon;timestamp;pressure;altitude;pressure_sealevel;temperature;humidity
84224;BME280;74353;51.208;0.304;2024-01-06T00:00:39;100806.86;;;5.07;47.22
84224;BME280;74353;51.208;0.304;2024-01-06T00:03:07;100810.78;;;5.15;47.53
84224;BME280;74353;51.208;0.304;2024-01-06T00:05:33;100811.36;;;5.16;47.74
84224;BME280;74353;51.208;0.304;2024-01-06T00:07:59;100817.14;;;5.11;47.93
84224;BME280;74353;51.208;0.304;2024-01-06T00:10:24;100816.11;;;5.27;47.88
84224;BME280;74353;51.208;0.304;2024-01-06T00:12:49;100818.01;;;5.26;48.25
84224;BME280;74353;51.208;0.304;2024-01-06T00:15:17;100817.97;;;5.31;48.86
84224;BME280;74353;51.208;0.304;2024-01-06T00:17:42;100822.48;;;5.25;49.35
84224;BME280;74353;51.208;0.304;2024-01-06T00:20:09;100825.57;;;5.46;49.69
84224;BME280;74353;51.208;0.304;2024-01-06T00:22:36;100829.77;;;5.36;49.88
84224;BME280;74353;51.208;0.304;2024-01-06T00:25:01;100833.74;;;5.31;49.91
84224;BME280;74353;51.208;0.304;2024-01-06T00:27:28;100833.00;;;5.21;50.37
84224;BME280;74353;51.208;0.304;2024-01-06T00:29:55;100837.11;;;5.59;50.02
84224;BME280;74353;51.208;0.304;2024-01-06T00:32:22;100840.17;;;5.39;50.42
84224;BME280;74353;51.208;0.304;2024-01-06T00:34:49;100843.99;;;5.57;50.22
84224;BME280;74353;51.208;0.304;2024-01-06T00:37:16;100848.14;;;5.52;50.55
84224;BME280;74353;51.208;0.304;2024-01-06T00:39:42;100846.64;;;5.47;50.71
84224;BME280;74353;51.208;0.304;2024-01-06T00:42:08;100844.31;;;5.48;50.82
84224;BME280;74353;51.208;0.304;2024-01-06T00:44:36;100849.43;;;5.60;50.62
84224;BME280;74353;51.208;0.304;2024-01-06T00:47:04;100846.12;;;5.65;50.60
84224;BME280;74353;51.208;0.304;2024-01-06T00:49:28;100849.27;;;5.58;50.81
84224;BME280;74353;51.208;0.304;2024-01-06T00:51:53;100848.47;;;5.19;50.72
84224;BME280;74353;51.208;0.304;2024-01-06T00:54:19;100849.92;;;5.78;50.54
84224;BME280;74353;51.208;0.304;2024-01-06T00:56:46;100845.75;;;5.69;50.77
84224;BME280;74353;51.208;0.304;2024-01-06T00:59:12;100845.23;;;5.89;50.59
84224;BME280;74353;51.208;0.304;2024-01-06T01:01:43;100845.29;;;5.80;50.79
84224;BME280;74353;51.208;0.304;2024-01-06T01:04:09;100846.66;;;5.51;50.92
84224;BME280;74353;51.208;0.304;2024-01-06T01:06:36;100845.32;;;5.93;50.67
84224;BME280;74353;51.208;0.304;2024-01-06T01:09:00;100844.50;;;6.07;50.51
84224;BME280;74353;51.208;0.304;2024-01-06T01:11:29;100847.47;;;5.69;50.72
84224;BME280;74353;51.208;0.304;2024-01-06T01:13:57;100844.45;;;5.95;50.78
84224;BME280;74353;51.208;0.304;2024-01-06T01:16:23;100842.72;;;6.08;50.66
84224;BME280;74353;51.208;0.304;2024-01-06T01:18:48;100842.77;;;5.93;50.54
84224;BME280;74353;51.208;0.304;2024-01-06T01:21:14;100844.19;;;5.50;50.91
84224;BME280;74353;51.208;0.304;2024-01-06T01:23:43;100845.44;;;6.15;50.72
84224;BME280;74353;51.208;0.304;2024-01-06T01:26:07;100847.32;;;5.91;50.69
84224;BME280;74353;51.208;0.304;2024-01-06T01:28:32;100849.90;;;5.97;50.65
84224;BME280;74353;51.208;0.304;2024-01-06T01:30:57;100851.68;;;5.95;50.65
84224;BME280;74353;51.208;0.304;2024-01-06T01:33:25;100854.27;;;6.25;50.68
84224;BME280;74353;51.208;0.304;2024-01-06T01:35:51;100850.72;;;5.82;50.60
84224;BME280;74353;51.208;0.304;2024-01-06T01:38:18;100850.39;;;6.06;50.63
84224;BME280;74353;51.208;0.304;2024-01-06T01:40:43;100850.36;;;5.93;50.95
84224;BME280;74353;51.208;0.304;2024-01-06T01:43:16;100852.04;;;5.78;50.74
84224;BME280;74353;51.208;0.304;2024-01-06T01:45:37;100856.35;;;5.94;50.86
84224;BME280;74353;51.208;0.304;2024-01-06T01:48:03;100859.83;;;6.16;50.84
84224;BME280;74353;51.208;0.304;2024-01-06T01:50:29;100860.76;;;6.14;50.57
84224;BME280;74353;51.208;0.304;2024-01-06T01:52:55;100865.75;;;5.76;50.85
84224;BME280;74353;51.208;0.304;2024-01-06T01:55:23;100869.85;;;6.03;50.86
84224;BME280;74353;51.208;0.304;2024-01-06T01:57:49;100873.39;;;5.87;50.63
84224;BME280;74353;51.208;0.304;2024-01-06T02:00:15;100878.84;;;6.20;51.07
84224;BME280;74353;51.208;0.304;2024-01-06T02:02:40;100878.80;;;6.07;50.64
84224;BME280;74353;51.208;0.304;2024-01-06T02:05:10;100886.08;;;6.13;51.03
84224;BME280;74353;51.208;0.304;2024-01-06T02:07:35;100889.03;;;6.35;51.03
84224;BME280;74353;51.208;0.304;2024-01-06T02:10:02;100893.35;;;6.02;50.92
84224;BME280;74353;51.208;0.304;2024-01-06T02:12:30;100898.53;;;6.05;50.85
84224;BME280;74353;51.208;0.304;2024-01-06T02:14:55;100899.93;;;6.40;50.54
84224;BME280;74353;51.208;0.304;2024-01-06T02:19:51;100904.87;;;6.10;50.74
84224;BME280;74353;51.208;0.304;2024-01-06T02:22:17;100906.12;;;6.23;50.64
84224;BME280;74353;51.208;0.304;2024-01-06T02:24:44;100912.10;;;6.48;51.13
84224;BME280;74353;51.208;0.304;2024-01-06T02:27:10;100915.89;;;6.24;51.12
84224;BME280;74353;51.208;0.304;2024-01-06T02:29:37;100919.42;;;6.67;50.74
84224;BME280;74353;51.208;0.304;2024-01-06T02:32:05;100926.70;;;6.23;51.31
84224;BME280;74353;51.208;0.304;2024-01-06T02:34:29;100927.07;;;6.47;50.79
84224;BME280;74353;51.208;0.304;2024-01-06T02:36:54;100931.95;;;6.05;51.12
84224;BME280;74353;51.208;0.304;2024-01-06T02:39:21;100934.60;;;6.06;51.15
84224;BME280;74353;51.208;0.304;2024-01-06T02:41:46;100944.82;;;6.43;50.74
84224;BME280;74353;51.208;0.304;2024-01-06T02:44:12;100943.11;;;6.25;50.54
84224;BME280;74353;51.208;0.304;2024-01-06T02:46:37;100942.97;;;6.17;50.81
84224;BME280;74353;51.208;0.304;2024-01-06T02:49:04;100940.52;;;6.30;50.53
84224;BME280;74353;51.208;0.304;2024-01-06T02:51:31;100943.29;;;6.21;50.53
84224;BME280;74353;51.208;0.304;2024-01-06T02:53:58;100944.81;;;6.41;50.78
84224;BME280;74353;51.208;0.304;2024-01-06T02:56:24;100946.47;;;6.16;50.77
84224;BME280;74353;51.208;0.304;2024-01-06T02:58:50;100950.11;;;6.26;50.66
84224;BME280;74353;51.208;0.304;2024-01-06T03:01:17;100953.65;;;6.44;50.25
84224;BME280;74353;51.208;0.304;2024-01-06T03:03:42;100956.81;;;6.27;50.38
84224;BME280;74353;51.208;0.304;2024-01-06T03:06:07;100960.63;;;6.38;50.17
84224;BME280;74353;51.208;0.304;2024-01-06T03:08:32;100957.40;;;6.20;50.36
84224;BME280;74353;51.208;0.304;2024-01-06T03:10:58;100960.81;;;6.45;49.84
84224;BME280;74353;51.208;0.304;2024-01-06T03:13:23;100960.05;;;6.28;50.13
84224;BME280;74353;51.208;0.304;2024-01-06T03:15:50;100961.00;;;6.39;49.86
84224;BME280;74353;51.208;0.304;2024-01-06T03:18:18;100965.57;;;6.44;49.77
84224;BME280;74353;51.208;0.304;2024-01-06T03:20:46;100971.18;;;6.35;49.89
84224;BME280;74353;51.208;0.304;2024-01-06T03:23:12;100971.75;;;6.46;49.69
84224;BME280;74353;51.208;0.304;2024-01-06T03:25:37;100974.41;;;6.34;49.78
84224;BME280;74353;51.208;0.304;2024-01-06T03:28:03;100974.84;;;6.17;49.65
84224;BME280;74353;51.208;0.304;2024-01-06T03:30:32;100968.55;;;6.54;49.37
84224;BME280;74353;51.208;0.304;2024-01-06T03:32:58;100975.09;;;6.55;49.59
84224;BME280;74353;51.208;0.304;2024-01-06T03:35:23;100977.17;;;6.48;49.47
84224;BME280;74353;51.208;0.304;2024-01-06T03:37:49;100973.81;;;6.73;49.00
84224;BME280;74353;51.208;0.304;2024-01-06T03:40:15;100978.26;;;6.71;48.89
84224;BME280;74353;51.208;0.304;2024-01-06T03:42:40;100979.27;;;6.54;48.97
84224;BME280;74353;51.208;0.304;2024-01-06T03:45:06;100986.36;;;6.59;48.88
84224;BME280;74353;51.208;0.304;2024-01-06T03:47:31;100985.17;;;6.56;48.86
84224;BME280;74353;51.208;0.304;2024-01-06T03:49:57;100984.81;;;6.56;48.76
84224;BME280;74353;51.208;0.304;2024-01-06T03:52:24;100985.85;;;6.54;48.81
84224;BME280;74353;51.208;0.304;2024-01-06T03:54:50;100985.76;;;6.38;48.98
84224;BME280;74353;51.208;0.304;2024-01-06T03:57:17;100986.80;;;6.60;48.63
84224;BME280;74353;51.208;0.304;2024-01-06T03:59:42;100989.69;;;6.60;48.56
84224;BME280;74353;51.208;0.304;2024-01-06T04:02:12;100993.62;;;6.71;48.34
84224;BME280;74353;51.208;0.304;2024-01-06T04:04:38;100995.43;;;6.55;48.58
84224;BME280;74353;51.208;0.304;2024-01-06T04:07:03;100997.90;;;6.87;48.54
84224;BME280;74353;51.208;0.304;2024-01-06T04:09:29;101000.89;;;6.56;48.61
84224;BME280;74353;51.208;0.304;2024-01-06T04:11:55;101003.60;;;6.52;48.66
84224;BME280;74353;51.208;0.304;2024-01-06T04:14:22;101005.50;;;6.60;48.42
84224;BME280;74353;51.208;0.304;2024-01-06T04:16:47;101009.61;;;6.66;48.39
84224;BME280;74353;51.208;0.304;2024-01-06T04:19:13;101012.76;;;6.55;48.42
84224;BME280;74353;51.208;0.304;2024-01-06T04:21:42;101018.30;;;6.49;48.83
84224;BME280;74353;51.208;0.304;2024-01-06T04:24:07;101024.98;;;6.71;48.28
84224;BME280;74353;51.208;0.304;2024-01-06T04:26:35;101029.70;;;6.57;48.57
84224;BME280;74353;51.208;0.304;2024-01-06T04:29:13;101034.45;;;6.68;48.30
84224;BME280;74353;51.208;0.304;2024-01-06T04:31:28;101031.84;;;6.58;48.39
84224;BME280;74353;51.208;0.304;2024-01-06T04:33:53;101032.42;;;6.63;48.24
84224;BME280;74353;51.208;0.304;2024-01-06T04:36:18;101034.15;;;6.74;48.13
84224;BME280;74353;51.208;0.304;2024-01-06T04:38:43;101036.35;;;6.79;47.96
84224;BME280;74353;51.208;0.304;2024-01-06T04:41:10;101043.75;;;6.70;48.19
84224;BME280;74353;51.208;0.304;2024-01-06T04:43:35;101044.49;;;6.79;47.98
84224;BME280;74353;51.208;0.304;2024-01-06T04:46:03;101044.66;;;6.66;48.27
84224;BME280;74353;51.208;0.304;2024-01-06T04:48:30;101046.11;;;6.68;48.20
84224;BME280;74353;51.208;0.304;2024-01-06T04:50:57;101047.22;;;6.81;47.98
84224;BME280;74353;51.208;0.304;2024-01-06T04:53:22;101047.77;;;6.65;48.19
84224;BME280;74353;51.208;0.304;2024-01-06T04:55:48;101049.33;;;6.86;47.95
84224;BME280;74353;51.208;0.304;2024-01-06T04:58:13;101053.23;;;6.76;48.11
84224;BME280;74353;51.208;0.304;2024-01-06T05:00:42;101060.66;;;6.76;48.03
84224;BME280;74353;51.208;0.304;2024-01-06T05:03:09;101063.70;;;6.45;48.04
84224;BME280;74353;51.208;0.304;2024-01-06T05:05:36;101066.53;;;6.89;47.71
84224;BME280;74353;51.208;0.304;2024-01-06T05:08:04;101068.15;;;6.61;47.86
84224;BME280;74353;51.208;0.304;2024-01-06T05:10:30;101066.26;;;6.88;47.88
84224;BME280;74353;51.208;0.304;2024-01-06T05:12:56;101068.66;;;6.72;48.07
84224;BME280;74353;51.208;0.304;2024-01-06T05:15:21;101070.99;;;6.90;47.69
84224;BME280;74353;51.208;0.304;2024-01-06T05:17:49;101072.68;;;6.63;48.15
84224;BME280;74353;51.208;0.304;2024-01-06T05:20:14;101072.08;;;6.87;47.74
84224;BME280;74353;51.208;0.304;2024-01-06T05:22:42;101074.62;;;6.90;47.68
84224;BME280;74353;51.208;0.304;2024-01-06T05:25:10;101076.75;;;6.66;48.02
84224;BME280;74353;51.208;0.304;2024-01-06T05:27:35;101079.60;;;6.63;48.09
84224;BME280;74353;51.208;0.304;2024-01-06T05:30:03;101076.63;;;6.64;48.00
84224;BME280;74353;51.208;0.304;2024-01-06T05:32:28;101075.70;;;7.28;47.67
84224;BME280;74353;51.208;0.304;2024-01-06T05:34:55;101079.60;;;6.79;47.65
84224;BME280;74353;51.208;0.304;2024-01-06T05:37:23;101082.58;;;6.67;47.83
84224;BME280;74353;51.208;0.304;2024-01-06T05:39:49;101082.20;;;6.45;47.72
84224;BME280;74353;51.208;0.304;2024-01-06T05:42:14;101088.62;;;6.79;47.47
84224;BME280;74353;51.208;0.304;2024-01-06T05:44:42;101088.71;;;6.68;47.65
84224;BME280;74353;51.208;0.304;2024-01-06T05:47:10;101087.71;;;6.78;47.58
84224;BME280;74353;51.208;0.304;2024-01-06T05:49:35;101092.02;;;6.77;47.55
84224;BME280;74353;51.208;0.304;2024-01-06T05:52:01;101096.14;;;6.76;47.73
84224;BME280;74353;51.208;0.304;2024-01-06T05:54:27;101097.54;;;6.80;47.51
84224;BME280;74353;51.208;0.304;2024-01-06T05:56:52;101106.75;;;6.88;47.45
84224;BME280;74353;51.208;0.304;2024-01-06T05:59:17;101104.61;;;6.72;47.72
84224;BME280;74353;51.208;0.304;2024-01-06T06:01:43;101104.94;;;6.79;47.44
84224;BME280;74353;51.208;0.304;2024-01-06T06:04:11;101110.55;;;6.84;47.40
84224;BME280;74353;51.208;0.304;2024-01-06T06:06:38;101114.80;;;6.43;47.60
84224;BME280;74353;51.208;0.304;2024-01-06T06:09:03;101116.59;;;6.46;47.66
84224;BME280;74353;51.208;0.304;2024-01-06T06:11:35;101116.85;;;6.78;47.52
84224;BME280;74353;51.208;0.304;2024-01-06T06:14:02;101125.36;;;6.72;47.65
84224;BME280;74353;51.208;0.304;2024-01-06T06:16:31;101124.97;;;6.72;47.55
84224;BME280;74353;51.208;0.304;2024-01-06T06:18:55;101127.73;;;6.80;47.28
84224;BME280;74353;51.208;0.304;2024-01-06T06:21:21;101129.05;;;6.73;47.41
84224;BME280;74353;51.208;0.304;2024-01-06T06:23:47;101131.29;;;6.78;47.33
84224;BME280;74353;51.208;0.304;2024-01-06T06:26:14;101133.40;;;6.76;47.27
84224;BME280;74353;51.208;0.304;2024-01-06T06:28:40;101138.13;;;6.71;47.23
84224;BME280;74353;51.208;0.304;2024-01-06T06:31:06;101143.30;;;6.86;46.97
84224;BME280;74353;51.208;0.304;2024-01-06T06:33:30;101144.30;;;6.64;47.30
84224;BME280;74353;51.208;0.304;2024-01-06T06:35:57;101145.14;;;6.69;47.22
84224;BME280;74353;51.208;0.304;2024-01-06T06:38:23;101145.47;;;6.66;47.21
84224;BME280;74353;51.208;0.304;2024-01-06T06:40:50;101150.23;;;6.65;47.12
84224;BME280;74353;51.208;0.304;2024-01-06T06:43:17;101155.16;;;6.76;47.01
84224;BME280;74353;51.208;0.304;2024-01-06T06:45:43;101157.22;;;6.64;47.18
84224;BME280;74353;51.208;0.304;2024-01-06T06:48:09;101159.84;;;6.73;46.95
84224;BME280;74353;51.208;0.304;2024-01-06T06:50:34;101162.83;;;6.76;46.80
84224;BME280;74353;51.208;0.304;2024-01-06T06:52:59;101167.44;;;6.84;46.58
84224;BME280;74353;51.208;0.304;2024-01-06T06:55:26;101172.34;;;6.31;47.04
84224;BME280;74353;51.208;0.304;2024-01-06T06:57:53;101177.93;;;6.55;46.91
84224;BME280;74353;51.208;0.304;2024-01-06T07:00:20;101182.58;;;6.78;46.46
84224;BME280;74353;51.208;0.304;2024-01-06T07:02:45;101187.74;;;6.60;46.64
84224;BME280;74353;51.208;0.304;2024-01-06T07:05:12;101196.46;;;6.48;46.77
84224;BME280;74353;51.208;0.304;2024-01-06T07:07:37;101200.89;;;6.50;46.77
84224;BME280;74353;51.208;0.304;2024-01-06T07:10:05;101199.71;;;6.69;46.44
84224;BME280;74353;51.208;0.304;2024-01-06T07:12:29;101204.15;;;6.63;46.53
84224;BME280;74353;51.208;0.304;2024-01-06T07:14:55;101206.57;;;6.63;46.55
84224;BME280;74353;51.208;0.304;2024-01-06T07:17:22;101208.48;;;6.67;46.51
84224;BME280;74353;51.208;0.304;2024-01-06T07:19:48;101212.73;;;6.54;46.72
84224;BME280;74353;51.208;0.304;2024-01-06T07:22:14;101215.59;;;6.42;46.79
84224;BME280;74353;51.208;0.304;2024-01-06T07:24:41;101219.57;;;6.53;46.59
84224;BME280;74353;51.208;0.304;2024-01-06T07:27:06;101223.41;;;6.54;46.62
84224;BME280;74353;51.208;0.304;2024-01-06T07:29:34;101230.71;;;6.58;46.44
84224;BME280;74353;51.208;0.304;2024-01-06T07:32:00;101235.37;;;6.67;46.28
84224;BME280;74353;51.208;0.304;2024-01-06T07:34:26;101240.44;;;6.54;46.48
84224;BME280;74353;51.208;0.304;2024-01-06T07:36:54;101244.02;;;6.65;46.38
84224;BME280;74353;51.208;0.304;2024-01-06T07:39:19;101242.19;;;6.44;46.73
84224;BME280;74353;51.208;0.304;2024-01-06T07:41:44;101247.03;;;6.47;46.70
84224;BME280;74353;51.208;0.304;2024-01-06T07:44:10;101250.61;;;6.55;46.69
84224;BME280;74353;51.208;0.304;2024-01-06T07:46:35;101252.38;;;6.47;46.63
84224;BME280;74353;51.208;0.304;2024-01-06T07:49:01;101254.17;;;6.63;46.72
84224;BME280;74353;51.208;0.304;2024-01-06T07:51:27;101254.84;;;6.52;46.54
84224;BME280;74353;51.208;0.304;2024-01-06T07:53:54;101255.51;;;6.52;46.53
84224;BME280;74353;51.208;0.304;2024-01-06T07:56:21;101259.75;;;6.53;46.55
84224;BME280;74353;51.208;0.304;2024-01-06T07:58:50;101266.15;;;6.53;46.56
84224;BME280;74353;51.208;0.304;2024-01-06T08:01:16;101268.13;;;6.70;46.70
84224;BME280;74353;51.208;0.304;2024-01-06T08:03:41;101278.12;;;6.53;46.54
84224;BME280;74353;51.208;0.304;2024-01-06T08:06:09;101282.98;;;6.42;46.78
84224;BME280;74353;51.208;0.304;2024-01-06T08:08:37;101287.04;;;6.59;46.47
84224;BME280;74353;51.208;0.304;2024-01-06T08:11:03;101296.25;;;6.49;46.66
84224;BME280;74353;51.208;0.304;2024-01-06T08:13:30;101295.56;;;6.52;46.57
84224;BME280;74353;51.208;0.304;2024-01-06T08:15:55;101301.38;;;6.53;46.63
84224;BME280;74353;51.208;0.304;2024-01-06T08:18:21;101305.84;;;6.38;46.95
84224;BME280;74353;51.208;0.304;2024-01-06T08:20:50;101307.02;;;6.67;46.58
84224;BME280;74353;51.208;0.304;2024-01-06T08:23:17;101315.50;;;6.50;46.83
84224;BME280;74353;51.208;0.304;2024-01-06T08:25:42;101317.37;;;6.53;46.78
84224;BME280;74353;51.208;0.304;2024-01-06T08:28:08;101318.26;;;6.57;46.78
84224;BME280;74353;51.208;0.304;2024-01-06T08:30:35;101320.20;;;6.67;46.59
84224;BME280;74353;51.208;0.304;2024-01-06T08:33:04;101321.97;;;6.66;46.73
84224;BME280;74353;51.208;0.304;2024-01-06T08:35:30;101321.66;;;6.53;46.50
84224;BME280;74353;51.208;0.304;2024-01-06T08:37:57;101329.16;;;6.71;46.55
84224;BME280;74353;51.208;0.304;2024-01-06T08:40:24;101328.23;;;6.89;46.27
84224;BME280;74353;51.208;0.304;2024-01-06T08:42:52;101334.16;;;6.85;46.04
84224;BME280;74353;51.208;0.304;2024-01-06T08:45:19;101336.76;;;6.63;46.37
84224;BME280;74353;51.208;0.304;2024-01-06T08:47:44;101337.40;;;6.60;46.45
84224;BME280;74353;51.208;0.304;2024-01-06T08:50:12;101336.68;;;6.58;46.18
84224;BME280;74353;51.208;0.304;2024-01-06T08:52:39;101342.39;;;6.66;46.10
84224;BME280;74353;51.208;0.304;2024-01-06T08:55:05;101346.50;;;6.65;46.20
84224;BME280;74353;51.208;0.304;2024-01-06T08:57:31;101351.96;;;6.67;46.21
84224;BME280;74353;51.208;0.304;2024-01-06T08:59:56;101356.03;;;6.70;46.16
84224;BME280;74353;51.208;0.304;2024-01-06T09:02:21;101360.21;;;6.69;46.24
84224;BME280;74353;51.208;0.304;2024-01-06T09:04:47;101366.57;;;6.90;45.82
84224;BME280;74353;51.208;0.304;2024-01-06T09:07:12;101372.17;;;6.54;45.96
84224;BME280;74353;51.208;0.304;2024-01-06T09:09:37;101377.50;;;6.68;46.30
84224;BME280;74353;51.208;0.304;2024-01-06T09:12:03;101384.04;;;6.79;46.17
84224;BME280;74353;51.208;0.304;2024-01-06T09:14:28;101388.55;;;6.77;46.22
84224;BME280;74353;51.208;0.304;2024-01-06T09:16:56;101395.81;;;6.81;46.15
84224;BME280;74353;51.208;0.304;2024-01-06T09:19:23;101401.81;;;6.87;46.09
84224;BME280;74353;51.208;0.304;2024-01-06T09:21:50;101404.95;;;6.89;46.17
84224;BME280;74353;51.208;0.304;2024-01-06T09:24:15;101410.40;;;6.74;46.41
84224;BME280;74353;51.208;0.304;2024-01-06T09:26:43;101414.12;;;6.79;46.28
84224;BME280;74353;51.208;0.304;2024-01-06T09:29:08;101417.70;;;6.66;46.16
84224;BME280;74353;51.208;0.304;2024-01-06T09:31:34;101422.88;;;6.93;46.06
84224;BME280;74353;51.208;0.304;2024-01-06T09:34:01;101421.42;;;7.03;45.88
84224;BME280;74353;51.208;0.304;2024-01-06T09:36:27;101423.91;;;6.69;46.40
84224;BME280;74353;51.208;0.304;2024-01-06T09:38:53;101428.58;;;6.93;46.13
84224;BME280;74353;51.208;0.304;2024-01-06T09:41:22;101431.78;;;6.86;46.28
84224;BME280;74353;51.208;0.304;2024-01-06T09:43:50;101435.48;;;6.86;45.94
84224;BME280;74353;51.208;0.304;2024-01-06T09:46:23;101439.81;;;6.86;46.01
84224;BME280;74353;51.208;0.304;2024-01-06T09:48:43;101439.82;;;6.93;46.23
84224;BME280;74353;51.208;0.304;2024-01-06T09:51:11;101445.02;;;6.90;46.16
84224;BME280;74353;51.208;0.304;2024-01-06T09:53:45;101446.83;;;6.71;46.16
84224;BME280;74353;51.208;0.304;2024-01-06T09:56:06;101447.39;;;6.75;46.10
84224;BME280;74353;51.208;0.304;2024-01-06T09:58:31;101453.19;;;7.03;45.70
84224;BME280;74353;51.208;0.304;2024-01-06T10:01:00;101455.57;;;7.22;45.88
84224;BME280;74353;51.208;0.304;2024-01-06T10:03:23;101457.44;;;7.11;46.06
84224;BME280;74353;51.208;0.304;2024-01-06T10:05:51;101461.91;;;6.98;46.01
84224;BME280;74353;51.208;0.304;2024-01-06T10:08:18;101468.22;;;7.22;45.98
84224;BME280;74353;51.208;0.304;2024-01-06T10:10:44;101474.42;;;7.10;45.99
84224;BME280;74353;51.208;0.304;2024-01-06T10:13:08;101474.42;;;7.19;45.90
84224;BME280;74353;51.208;0.304;2024-01-06T10:15:35;101476.86;;;6.98;45.84
84224;BME280;74353;51.208;0.304;2024-01-06T10:18:01;101480.62;;;7.32;45.72
84224;BME280;74353;51.208;0.304;2024-01-06T10:20:27;101483.52;;;7.23;45.86
84224;BME280;74353;51.208;0.304;2024-01-06T10:22:54;101486.90;;;6.79;45.81
84224;BME280;74353;51.208;0.304;2024-01-06T10:25:23;101488.73;;;6.93;45.70
84224;BME280;74353;51.208;0.304;2024-01-06T10:27:48;101490.42;;;6.84;45.95
84224;BME280;74353;51.208;0.304;2024-01-06T10:30:15;101484.89;;;7.03;45.54
84224;BME280;74353;51.208;0.304;2024-01-06T10:32:43;101487.22;;;7.28;45.46
84224;BME280;74353;51.208;0.304;2024-01-06T10:35:08;101485.13;;;7.35;45.27
84224;BME280;74353;51.208;0.304;2024-01-06T10:37:34;101483.74;;;7.16;45.32
84224;BME280;74353;51.208;0.304;2024-01-06T10:40:07;101484.31;;;7.16;45.75
84224;BME280;74353;51.208;0.304;2024-01-06T10:42:26;101481.43;;;7.16;45.21
84224;BME280;74353;51.208;0.304;2024-01-06T10:44:52;101482.44;;;7.04;45.49
84224;BME280;74353;51.208;0.304;2024-01-06T10:47:18;101487.82;;;7.26;44.99
84224;BME280;74353;51.208;0.304;2024-01-06T10:49:44;101490.81;;;6.98;45.00
84224;BME280;74353;51.208;0.304;2024-01-06T10:52:09;101482.04;;;7.20;45.34
84224;BME280;74353;51.208;0.304;2024-01-06T10:54:36;101492.37;;;7.37;44.94
84224;BME280;74353;51.208;0.304;2024-01-06T10:57:06;101492.87;;;7.42;45.30
84224;BME280;74353;51.208;0.304;2024-01-06T10:59:33;101493.66;;;7.24;44.97
84224;BME280;74353;51.208;0.304;2024-01-06T11:02:00;101496.19;;;7.49;44.53
84224;BME280;74353;51.208;0.304;2024-01-06T11:04:28;101500.72;;;7.09;44.94
84224;BME280;74353;51.208;0.304;2024-01-06T11:06:54;101501.81;;;7.30;45.04
84224;BME280;74353;51.208;0.304;2024-01-06T11:09:22;101504.65;;;7.03;45.12
84224;BME280;74353;51.208;0.304;2024-01-06T11:11:45;101509.44;;;7.74;44.61
84224;BME280;74353;51.208;0.304;2024-01-06T11:14:20;101507.51;;;7.44;44.41
84224;BME280;74353;51.208;0.304;2024-01-06T11:16:37;101504.54;;;7.69;44.60
84224;BME280;74353;51.208;0.304;2024-01-06T11:19:03;101507.54;;;7.57;44.35
84224;BME280;74353;51.208;0.304;2024-01-06T11:21:33;101504.64;;;7.62;44.43
84224;BME280;74353;51.208;0.304;2024-01-06T11:26:22;101509.91;;;7.72;44.59
84224;BME280;74353;51.208;0.304;2024-01-06T11:28:48;101514.40;;;7.38;44.76
84224;BME280;74353;51.208;0.304;2024-01-06T11:31:13;101515.17;;;7.32;44.55
84224;BME280;74353;51.208;0.304;2024-01-06T11:33:44;101525.08;;;8.04;44.27
84224;BME280;74353;51.208;0.304;2024-01-06T11:36:10;101524.36;;;7.77;44.23
84224;BME280;74353;51.208;0.304;2024-01-06T11:38:38;101528.85;;;7.74;44.19
84224;BME280;74353;51.208;0.304;2024-01-06T11:41:03;101529.77;;;7.51;44.38
84224;BME280;74353;51.208;0.304;2024-01-06T11:43:28;101531.69;;;8.04;44.26
84224;BME280;74353;51.208;0.304;2024-01-06T11:45:58;101531.63;;;7.51;44.21
84224;BME280;74353;51.208;0.304;2024-01-06T11:48:22;101529.11;;;7.64;44.29
84224;BME280;74353;51.208;0.304;2024-01-06T11:50:49;101529.49;;;7.56;44.30
84224;BME280;74353;51.208;0.304;2024-01-06T11:53:15;101524.54;;;7.72;43.92
84224;BME280;74353;51.208;0.304;2024-01-06T11:55:40;101522.28;;;7.79;44.02
84224;BME280;74353;51.208;0.304;2024-01-06T11:58:06;101519.74;;;7.97;44.05
84224;BME280;74353;51.208;0.304;2024-01-06T12:00:37;101519.32;;;8.20;43.81
84224;BME280;74353;51.208;0.304;2024-01-06T12:02:59;101519.02;;;7.86;43.87
84224;BME280;74353;51.208;0.304;2024-01-06T12:05:24;101514.50;;;7.95;43.72
84224;BME280;74353;51.208;0.304;2024-01-06T12:07:54;101516.42;;;7.92;43.82
84224;BME280;74353;51.208;0.304;2024-01-06T12:10:15;101517.46;;;7.78;44.24
84224;BME280;74353;51.208;0.304;2024-01-06T12:12:41;101513.28;;;7.78;43.98
84224;BME280;74353;51.208;0.304;2024-01-06T12:15:07;101514.72;;;7.87;43.81
84224;BME280;74353;51.208;0.304;2024-01-06T12:17:34;101516.48;;;8.02;43.58
84224;BME280;74353;51.208;0.304;2024-01-06T12:20:01;101512.42;;;8.09;43.45
84224;BME280;74353;51.208;0.304;2024-01-06T12:22:29;101515.22;;;8.32;43.40
84224;BME280;74353;51.208;0.304;2024-01-06T12:24:54;101519.59;;;8.22;43.67
84224;BME280;74353;51.208;0.304;2024-01-06T12:27:19;101519.91;;;8.13;43.29
84224;BME280;74353;51.208;0.304;2024-01-06T12:29:46;101517.06;;;8.06;43.31
84224;BME280;74353;51.208;0.304;2024-01-06T12:32:12;101520.38;;;7.89;43.73
84224;BME280;74353;51.208;0.304;2024-01-06T12:34:42;101515.63;;;7.86;43.60
84224;BME280;74353;51.208;0.304;2024-01-06T12:37:08;101517.19;;;8.00;43.36
84224;BME280;74353;51.208;0.304;2024-01-06T12:39:34;101516.28;;;7.83;43.63
84224;BME280;74353;51.208;0.304;2024-01-06T12:42:02;101513.14;;;8.12;43.65
84224;BME280;74353;51.208;0.304;2024-01-06T12:44:27;101514.71;;;8.14;43.57
84224;BME280;74353;51.208;0.304;2024-01-06T12:46:52;101511.18;;;8.28;43.39
84224;BME280;74353;51.208;0.304;2024-01-06T12:49:18;101506.86;;;8.29;43.32
84224;BME280;74353;51.208;0.304;2024-01-06T12:51:44;101507.85;;;8.08;43.34
84224;BME280;74353;51.208;0.304;2024-01-06T12:54:09;101510.20;;;8.28;42.88
84224;BME280;74353;51.208;0.304;2024-01-06T12:56:34;101510.39;;;8.41;42.87
84224;BME280;74353;51.208;0.304;2024-01-06T12:59:00;101513.87;;;8.16;42.65